sensor_id;sensor_type;location;lat;lon;timestamp;P1;durP1;ratioP1;P2;durP2;ratioP2
47025;SDS011;32783;51.756;-2.556;2023-05-07T00:00:16;2.92;;;2.63;;
47025;SDS011;32783;51.756;-2.556;2023-05-07T00:02:43;3.45;;;2.53;;
47025;SDS011;32783;51.756;-2.556;2023-05-07T00:05:09;2.60;;;2.40;;
47025;SDS011;32783;51.756;-2.556;2023-05-07T00:07:35;2.50;;;2.15;;
47025;SDS011;32783;51.756;-2.556;2023-05-07T00:10:01;3.53;;;2.58;;
47025;SDS011;32783;51.756;-2.556;2023-05-07T00:12:26;3.13;;;2.33;;
47025;SDS011;32783;51.756;-2.556;2023-05-07T00:14:52;2.40;;;2.20;;
47025;SDS011;32783;51.756;-2.556;2023-05-07T00:17:17;3.10;;;2.17;;
47025;SDS011;32783;51.756;-2.556;2023-05-07T00:19:42;3.42;;;2.60;;
47025;SDS011;32783;51.756;-2.556;2023-05-07T00:22:08;3.50;;;2.25;;
47025;SDS011;32783;51.756;-2.556;2023-05-07T00:24:33;2.17;;;1.92;;
47025;SDS011;32783;51.756;-2.556;2023-05-07T00:26:59;2.20;;;2.00;;
47025;SDS011;32783;51.756;-2.556;2023-05-07T00:29:25;3.22;;;2.20;;
47025;SDS011;32783;51.756;-2.556;2023-05-07T00:31:50;3.85;;;2.28;;
47025;SDS011;32783;51.756;-2.556;2023-05-07T00:34:16;2.40;;;2.00;;
47025;SDS011;32783;51.756;-2.556;2023-05-07T00:36:41;2.20;;;1.88;;
47025;SDS011;32783;51.756;-2.556;2023-05-07T00:39:07;2.35;;;2.15;;
47025;SDS011;32783;51.756;-2.556;2023-05-07T00:41:32;3.03;;;2.10;;
47025;SDS011;32783;51.756;-2.556;2023-05-07T00:43:57;2.97;;;2.00;;
47025;SDS011;32783;51.756;-2.556;2023-05-07T00:46:23;3.38;;;2.63;;
47025;SDS011;32783;51.756;-2.556;2023-05-07T00:48:51;1.73;;;1.63;;
47025;SDS011;32783;51.756;-2.556;2023-05-07T00:51:17;4.30;;;2.20;;
47025;SDS011;32783;51.756;-2.556;2023-05-07T00:53:43;3.42;;;1.95;;
47025;SDS011;32783;51.756;-2.556;2023-05-07T00:56:08;2.33;;;1.80;;
47025;SDS011;32783;51.756;-2.556;2023-05-07T00:58:34;2.10;;;1.90;;
47025;SDS011;32783;51.756;-2.556;2023-05-07T01:01:00;3.00;;;1.88;;
47025;SDS011;32783;51.756;-2.556;2023-05-07T01:03:25;1.90;;;1.80;;
47025;SDS011;32783;51.756;-2.556;2023-05-07T01:05:51;3.10;;;1.92;;
47025;SDS011;32783;51.756;-2.556;2023-05-07T01:08:17;2.47;;;2.05;;
47025;SDS011;32783;51.756;-2.556;2023-05-07T01:10:43;2.08;;;1.73;;
47025;SDS011;32783;51.756;-2.556;2023-05-07T01:13:12;3.72;;;1.90;;
47025;SDS011;32783;51.756;-2.556;2023-05-07T01:15:39;1.92;;;1.77;;
47025;SDS011;32783;51.756;-2.556;2023-05-07T01:18:06;1.95;;;1.85;;
47025;SDS011;32783;51.756;-2.556;2023-05-07T01:20:32;1.60;;;1.50;;
47025;SDS011;32783;51.756;-2.556;2023-05-07T01:22:57;2.20;;;2.00;;
47025;SDS011;32783;51.756;-2.556;2023-05-07T01:25:22;4.03;;;2.10;;
47025;SDS011;32783;51.756;-2.556;2023-05-07T01:27:48;2.35;;;1.60;;
47025;SDS011;32783;51.756;-2.556;2023-05-07T01:30:13;1.75;;;1.63;;
47025;SDS011;32783;51.756;-2.556;2023-05-07T01:35:26;2.05;;;1.58;;
47025;SDS011;32783;51.756;-2.556;2023-05-07T01:37:54;2.55;;;1.40;;
47025;SDS011;32783;51.756;-2.556;2023-05-07T01:40:19;2.20;;;1.83;;
47025;SDS011;32783;51.756;-2.556;2023-05-07T01:42:45;1.38;;;1.27;;
47025;SDS011;32783;51.756;-2.556;2023-05-07T01:45:11;1.75;;;1.60;;
47025;SDS011;32783;51.756;-2.556;2023-05-07T01:47:37;2.42;;;1.75;;
47025;SDS011;32783;51.756;-2.556;2023-05-07T01:50:03;2.42;;;1.50;;
47025;SDS011;32783;51.756;-2.556;2023-05-07T01:52:30;1.85;;;1.67;;
47025;SDS011;32783;51.756;-2.556;2023-05-07T01:54:56;3.63;;;1.60;;
47025;SDS011;32783;51.756;-2.556;2023-05-07T01:57:21;1.63;;;1.48;;
47025;SDS011;32783;51.756;-2.556;2023-05-07T01:59:47;3.33;;;2.33;;
47025;SDS011;32783;51.756;-2.556;2023-05-07T02:02:12;1.90;;;1.42;;
47025;SDS011;32783;51.756;-2.556;2023-05-07T02:04:37;2.53;;;1.42;;
47025;SDS011;32783;51.756;-2.556;2023-05-07T02:07:03;2.35;;;1.55;;
47025;SDS011;32783;51.756;-2.556;2023-05-07T02:09:29;2.60;;;1.60;;
47025;SDS011;32783;51.756;-2.556;2023-05-07T02:11:54;1.48;;;1.23;;
47025;SDS011;32783;51.756;-2.556;2023-05-07T02:14:19;1.48;;;1.38;;
47025;SDS011;32783;51.756;-2.556;2023-05-07T02:16:45;1.42;;;0.85;;
47025;SDS011;32783;51.756;-2.556;2023-05-07T02:19:11;1.92;;;1.25;;
47025;SDS011;32783;51.756;-2.556;2023-05-07T02:21:36;1.65;;;1.20;;
47025;SDS011;32783;51.756;-2.556;2023-05-07T02:24:01;1.50;;;1.40;;
47025;SDS011;32783;51.756;-2.556;2023-05-07T02:26:27;1.23;;;1.05;;
47025;SDS011;32783;51.756;-2.556;2023-05-07T02:28:52;1.30;;;1.08;;
47025;SDS011;32783;51.756;-2.556;2023-05-07T02:31:18;1.38;;;1.10;;
47025;SDS011;32783;51.756;-2.556;2023-05-07T02:33:44;1.00;;;0.90;;
47025;SDS011;32783;51.756;-2.556;2023-05-07T02:36:10;1.25;;;1.10;;
47025;SDS011;32783;51.756;-2.556;2023-05-07T02:38:36;1.95;;;1.08;;
47025;SDS011;32783;51.756;-2.556;2023-05-07T02:41:02;2.20;;;1.00;;
47025;SDS011;32783;51.756;-2.556;2023-05-07T02:43:27;1.10;;;1.00;;
47025;SDS011;32783;51.756;-2.556;2023-05-07T02:46:05;1.10;;;1.00;;
47025;SDS011;32783;51.756;-2.556;2023-05-07T02:48:32;1.08;;;0.85;;
47025;SDS011;32783;51.756;-2.556;2023-05-07T02:50:57;1.20;;;0.90;;
47025;SDS011;32783;51.756;-2.556;2023-05-07T02:53:23;1.08;;;0.77;;
47025;SDS011;32783;51.756;-2.556;2023-05-07T02:55:51;1.10;;;1.00;;
47025;SDS011;32783;51.756;-2.556;2023-05-07T02:58:17;2.40;;;1.10;;
47025;SDS011;32783;51.756;-2.556;2023-05-07T03:00:43;1.33;;;0.90;;
47025;SDS011;32783;51.756;-2.556;2023-05-07T03:03:08;1.38;;;1.27;;
47025;SDS011;32783;51.756;-2.556;2023-05-07T03:05:33;0.95;;;0.85;;
47025;SDS011;32783;51.756;-2.556;2023-05-07T03:07:59;1.40;;;0.80;;
47025;SDS011;32783;51.756;-2.556;2023-05-07T03:10:24;1.15;;;0.80;;
47025;SDS011;32783;51.756;-2.556;2023-05-07T03:12:50;1.30;;;0.75;;
47025;SDS011;32783;51.756;-2.556;2023-05-07T03:15:15;0.82;;;0.80;;
47025;SDS011;32783;51.756;-2.556;2023-05-07T03:17:40;0.80;;;0.70;;
47025;SDS011;32783;51.756;-2.556;2023-05-07T03:20:06;1.25;;;0.68;;
47025;SDS011;32783;51.756;-2.556;2023-05-07T03:22:32;0.85;;;0.70;;
47025;SDS011;32783;51.756;-2.556;2023-05-07T03:24:58;0.65;;;0.55;;
47025;SDS011;32783;51.756;-2.556;2023-05-07T03:27:23;1.25;;;0.75;;
47025;SDS011;32783;51.756;-2.556;2023-05-07T03:29:49;0.60;;;0.60;;
47025;SDS011;32783;51.756;-2.556;2023-05-07T03:32:14;0.90;;;0.63;;
47025;SDS011;32783;51.756;-2.556;2023-05-07T03:34:39;0.95;;;0.80;;
47025;SDS011;32783;51.756;-2.556;2023-05-07T03:37:05;3.20;;;0.77;;
47025;SDS011;32783;51.756;-2.556;2023-05-07T03:39:31;0.75;;;0.70;;
47025;SDS011;32783;51.756;-2.556;2023-05-07T03:41:57;0.75;;;0.75;;
47025;SDS011;32783;51.756;-2.556;2023-05-07T03:44:22;2.05;;;0.70;;
47025;SDS011;32783;51.756;-2.556;2023-05-07T03:46:48;0.80;;;0.55;;
47025;SDS011;32783;51.756;-2.556;2023-05-07T03:49:13;0.63;;;0.60;;
47025;SDS011;32783;51.756;-2.556;2023-05-07T03:51:39;0.80;;;0.60;;
47025;SDS011;32783;51.756;-2.556;2023-05-07T03:54:04;0.40;;;0.40;;
47025;SDS011;32783;51.756;-2.556;2023-05-07T03:56:33;0.90;;;0.60;;
47025;SDS011;32783;51.756;-2.556;2023-05-07T03:58:59;3.17;;;0.68;;
47025;SDS011;32783;51.756;-2.556;2023-05-07T04:01:25;1.30;;;0.60;;
47025;SDS011;32783;51.756;-2.556;2023-05-07T04:03:50;0.93;;;0.52;;
47025;SDS011;32783;51.756;-2.556;2023-05-07T04:06:16;0.50;;;0.43;;
47025;SDS011;32783;51.756;-2.556;2023-05-07T04:08:44;0.45;;;0.40;;
47025;SDS011;32783;51.756;-2.556;2023-05-07T04:11:10;1.30;;;0.50;;
47025;SDS011;32783;51.756;-2.556;2023-05-07T04:13:35;1.13;;;0.50;;
47025;SDS011;32783;51.756;-2.556;2023-05-07T04:16:01;0.47;;;0.35;;
47025;SDS011;32783;51.756;-2.556;2023-05-07T04:18:27;0.93;;;0.50;;
47025;SDS011;32783;51.756;-2.556;2023-05-07T04:20:53;1.25;;;0.63;;
47025;SDS011;32783;51.756;-2.556;2023-05-07T04:23:18;0.50;;;0.45;;
47025;SDS011;32783;51.756;-2.556;2023-05-07T04:25:43;0.80;;;0.40;;
47025;SDS011;32783;51.756;-2.556;2023-05-07T04:28:10;1.25;;;0.50;;
47025;SDS011;32783;51.756;-2.556;2023-05-07T04:30:36;0.40;;;0.40;;
47025;SDS011;32783;51.756;-2.556;2023-05-07T04:33:01;0.40;;;0.40;;
47025;SDS011;32783;51.756;-2.556;2023-05-07T04:35:26;0.50;;;0.40;;
47025;SDS011;32783;51.756;-2.556;2023-05-07T04:37:52;0.45;;;0.30;;
47025;SDS011;32783;51.756;-2.556;2023-05-07T04:40:17;0.45;;;0.40;;
47025;SDS011;32783;51.756;-2.556;2023-05-07T04:42:43;0.60;;;0.40;;
47025;SDS011;32783;51.756;-2.556;2023-05-07T04:45:08;0.63;;;0.30;;
47025;SDS011;32783;51.756;-2.556;2023-05-07T04:47:35;0.40;;;0.30;;
47025;SDS011;32783;51.756;-2.556;2023-05-07T04:50:00;0.20;;;0.20;;
47025;SDS011;32783;51.756;-2.556;2023-05-07T04:52:26;0.30;;;0.30;;
47025;SDS011;32783;51.756;-2.556;2023-05-07T04:54:51;0.30;;;0.30;;
47025;SDS011;32783;51.756;-2.556;2023-05-07T04:57:17;0.47;;;0.40;;
47025;SDS011;32783;51.756;-2.556;2023-05-07T04:59:43;0.40;;;0.30;;
47025;SDS011;32783;51.756;-2.556;2023-05-07T05:02:09;0.40;;;0.40;;
47025;SDS011;32783;51.756;-2.556;2023-05-07T05:04:35;2.03;;;1.17;;
47025;SDS011;32783;51.756;-2.556;2023-05-07T05:07:01;0.52;;;0.40;;
47025;SDS011;32783;51.756;-2.556;2023-05-07T05:09:28;0.17;;;0.10;;
47025;SDS011;32783;51.756;-2.556;2023-05-07T05:11:54;1.00;;;0.25;;
47025;SDS011;32783;51.756;-2.556;2023-05-07T05:14:19;1.05;;;0.40;;
47025;SDS011;32783;51.756;-2.556;2023-05-07T05:16:44;0.73;;;0.32;;
47025;SDS011;32783;51.756;-2.556;2023-05-07T05:19:10;0.30;;;0.30;;
47025;SDS011;32783;51.756;-2.556;2023-05-07T05:21:35;0.28;;;0.25;;
47025;SDS011;32783;51.756;-2.556;2023-05-07T05:24:01;0.20;;;0.20;;
47025;SDS011;32783;51.756;-2.556;2023-05-07T05:26:26;0.30;;;0.20;;
47025;SDS011;32783;51.756;-2.556;2023-05-07T05:28:51;0.32;;;0.30;;
47025;SDS011;32783;51.756;-2.556;2023-05-07T05:31:17;0.75;;;0.35;;
47025;SDS011;32783;51.756;-2.556;2023-05-07T05:33:42;0.20;;;0.20;;
47025;SDS011;32783;51.756;-2.556;2023-05-07T05:36:11;0.50;;;0.30;;
47025;SDS011;32783;51.756;-2.556;2023-05-07T05:38:37;0.38;;;0.38;;
47025;SDS011;32783;51.756;-2.556;2023-05-07T05:41:03;0.38;;;0.30;;
47025;SDS011;32783;51.756;-2.556;2023-05-07T05:43:29;0.22;;;0.20;;
47025;SDS011;32783;51.756;-2.556;2023-05-07T05:45:55;0.55;;;0.35;;
47025;SDS011;32783;51.756;-2.556;2023-05-07T05:48:20;0.68;;;0.30;;
47025;SDS011;32783;51.756;-2.556;2023-05-07T05:50:46;0.65;;;0.57;;
47025;SDS011;32783;51.756;-2.556;2023-05-07T05:53:11;0.60;;;0.30;;
47025;SDS011;32783;51.756;-2.556;2023-05-07T05:55:37;0.82;;;0.43;;
47025;SDS011;32783;51.756;-2.556;2023-05-07T05:58:02;1.85;;;0.30;;
47025;SDS011;32783;51.756;-2.556;2023-05-07T06:00:28;0.30;;;0.30;;
47025;SDS011;32783;51.756;-2.556;2023-05-07T06:02:54;1.02;;;0.40;;
47025;SDS011;32783;51.756;-2.556;2023-05-07T06:05:19;0.20;;;0.20;;
47025;SDS011;32783;51.756;-2.556;2023-05-07T06:07:45;0.75;;;0.30;;
47025;SDS011;32783;51.756;-2.556;2023-05-07T06:10:10;0.30;;;0.30;;
47025;SDS011;32783;51.756;-2.556;2023-05-07T06:12:36;0.20;;;0.20;;
47025;SDS011;32783;51.756;-2.556;2023-05-07T06:15:01;0.43;;;0.30;;
47025;SDS011;32783;51.756;-2.556;2023-05-07T06:17:27;0.30;;;0.30;;
47025;SDS011;32783;51.756;-2.556;2023-05-07T06:19:52;0.15;;;0.13;;
47025;SDS011;32783;51.756;-2.556;2023-05-07T06:22:18;1.25;;;0.50;;
47025;SDS011;32783;51.756;-2.556;2023-05-07T06:24:43;0.35;;;0.30;;
47025;SDS011;32783;51.756;-2.556;2023-05-07T06:27:09;0.40;;;0.20;;
47025;SDS011;32783;51.756;-2.556;2023-05-07T06:29:34;1.80;;;0.38;;
47025;SDS011;32783;51.756;-2.556;2023-05-07T06:32:09;1.38;;;0.30;;
47025;SDS011;32783;51.756;-2.556;2023-05-07T06:34:35;0.95;;;0.28;;
47025;SDS011;32783;51.756;-2.556;2023-05-07T06:37:01;1.30;;;0.32;;
47025;SDS011;32783;51.756;-2.556;2023-05-07T06:39:27;0.52;;;0.52;;
47025;SDS011;32783;51.756;-2.556;2023-05-07T06:41:52;0.47;;;0.47;;
47025;SDS011;32783;51.756;-2.556;2023-05-07T06:44:18;0.68;;;0.40;;
47025;SDS011;32783;51.756;-2.556;2023-05-07T06:46:43;0.20;;;0.20;;
47025;SDS011;32783;51.756;-2.556;2023-05-07T06:49:10;0.65;;;0.22;;
47025;SDS011;32783;51.756;-2.556;2023-05-07T06:51:35;1.17;;;0.20;;
47025;SDS011;32783;51.756;-2.556;2023-05-07T06:54:01;0.40;;;0.20;;
47025;SDS011;32783;51.756;-2.556;2023-05-07T06:56:26;0.30;;;0.30;;
47025;SDS011;32783;51.756;-2.556;2023-05-07T06:58:52;0.30;;;0.30;;
47025;SDS011;32783;51.756;-2.556;2023-05-07T07:01:17;0.43;;;0.22;;
47025;SDS011;32783;51.756;-2.556;2023-05-07T07:03:43;0.60;;;0.30;;
47025;SDS011;32783;51.756;-2.556;2023-05-07T07:06:08;2.05;;;0.43;;
47025;SDS011;32783;51.756;-2.556;2023-05-07T07:08:33;0.20;;;0.13;;
47025;SDS011;32783;51.756;-2.556;2023-05-07T07:10:59;0.50;;;0.20;;
47025;SDS011;32783;51.756;-2.556;2023-05-07T07:13:25;0.77;;;0.50;;
47025;SDS011;32783;51.756;-2.556;2023-05-07T07:15:51;0.20;;;0.20;;
47025;SDS011;32783;51.756;-2.556;2023-05-07T07:18:17;1.30;;;0.40;;
47025;SDS011;32783;51.756;-2.556;2023-05-07T07:20:43;2.72;;;0.50;;
47025;SDS011;32783;51.756;-2.556;2023-05-07T07:23:09;2.95;;;0.57;;
47025;SDS011;32783;51.756;-2.556;2023-05-07T07:25:35;1.42;;;0.50;;
47025;SDS011;32783;51.756;-2.556;2023-05-07T07:28:00;0.82;;;0.32;;
47025;SDS011;32783;51.756;-2.556;2023-05-07T07:30:26;1.85;;;0.40;;
47025;SDS011;32783;51.756;-2.556;2023-05-07T07:32:51;1.20;;;0.50;;
47025;SDS011;32783;51.756;-2.556;2023-05-07T07:35:17;0.95;;;0.50;;
47025;SDS011;32783;51.756;-2.556;2023-05-07T07:37:43;0.50;;;0.38;;
47025;SDS011;32783;51.756;-2.556;2023-05-07T07:40:08;0.80;;;0.40;;
47025;SDS011;32783;51.756;-2.556;2023-05-07T07:42:34;0.40;;;0.30;;
47025;SDS011;32783;51.756;-2.556;2023-05-07T07:45:00;0.73;;;0.40;;
47025;SDS011;32783;51.756;-2.556;2023-05-07T07:47:25;2.15;;;0.50;;
47025;SDS011;32783;51.756;-2.556;2023-05-07T07:49:50;3.13;;;0.60;;
47025;SDS011;32783;51.756;-2.556;2023-05-07T07:52:16;1.60;;;0.50;;
47025;SDS011;32783;51.756;-2.556;2023-05-07T07:54:41;1.77;;;0.52;;
47025;SDS011;32783;51.756;-2.556;2023-05-07T07:57:06;1.88;;;0.50;;
47025;SDS011;32783;51.756;-2.556;2023-05-07T07:59:32;4.00;;;0.57;;
47025;SDS011;32783;51.756;-2.556;2023-05-07T08:01:57;1.55;;;0.50;;
47025;SDS011;32783;51.756;-2.556;2023-05-07T08:04:23;1.35;;;0.40;;
47025;SDS011;32783;51.756;-2.556;2023-05-07T08:06:48;0.65;;;0.45;;
47025;SDS011;32783;51.756;-2.556;2023-05-07T08:09:14;1.30;;;0.40;;
47025;SDS011;32783;51.756;-2.556;2023-05-07T08:11:39;0.93;;;0.50;;
47025;SDS011;32783;51.756;-2.556;2023-05-07T08:14:05;2.33;;;0.57;;
47025;SDS011;32783;51.756;-2.556;2023-05-07T08:16:30;1.67;;;0.68;;
47025;SDS011;32783;51.756;-2.556;2023-05-07T08:18:56;0.93;;;0.40;;
47025;SDS011;32783;51.756;-2.556;2023-05-07T08:21:22;2.72;;;0.60;;
47025;SDS011;32783;51.756;-2.556;2023-05-07T08:23:47;1.38;;;0.57;;
47025;SDS011;32783;51.756;-2.556;2023-05-07T08:26:13;3.40;;;1.00;;
47025;SDS011;32783;51.756;-2.556;2023-05-07T08:28:38;1.27;;;0.60;;
47025;SDS011;32783;51.756;-2.556;2023-05-07T08:31:04;1.73;;;0.50;;
47025;SDS011;32783;51.756;-2.556;2023-05-07T08:33:30;3.08;;;0.68;;
47025;SDS011;32783;51.756;-2.556;2023-05-07T08:35:56;1.70;;;0.50;;
47025;SDS011;32783;51.756;-2.556;2023-05-07T08:38:21;1.80;;;0.50;;
47025;SDS011;32783;51.756;-2.556;2023-05-07T08:40:47;3.30;;;0.82;;
47025;SDS011;32783;51.756;-2.556;2023-05-07T08:43:12;1.73;;;0.80;;
47025;SDS011;32783;51.756;-2.556;2023-05-07T08:45:40;0.95;;;0.50;;
47025;SDS011;32783;51.756;-2.556;2023-05-07T08:48:08;4.47;;;0.70;;
47025;SDS011;32783;51.756;-2.556;2023-05-07T08:50:38;2.63;;;0.90;;
47025;SDS011;32783;51.756;-2.556;2023-05-07T08:53:03;1.33;;;0.70;;
47025;SDS011;32783;51.756;-2.556;2023-05-07T08:55:30;2.13;;;0.85;;
47025;SDS011;32783;51.756;-2.556;2023-05-07T08:57:55;3.58;;;1.00;;
47025;SDS011;32783;51.756;-2.556;2023-05-07T09:00:21;7.45;;;1.42;;
47025;SDS011;32783;51.756;-2.556;2023-05-07T09:02:46;7.28;;;1.52;;
47025;SDS011;32783;51.756;-2.556;2023-05-07T09:05:12;7.90;;;1.00;;
47025;SDS011;32783;51.756;-2.556;2023-05-07T09:07:37;4.80;;;0.90;;
47025;SDS011;32783;51.756;-2.556;2023-05-07T09:10:03;3.28;;;0.80;;
47025;SDS011;32783;51.756;-2.556;2023-05-07T09:12:29;2.85;;;0.70;;
47025;SDS011;32783;51.756;-2.556;2023-05-07T09:14:55;3.55;;;0.68;;
47025;SDS011;32783;51.756;-2.556;2023-05-07T09:17:20;4.25;;;1.17;;
47025;SDS011;32783;51.756;-2.556;2023-05-07T09:19:46;4.10;;;0.80;;
47025;SDS011;32783;51.756;-2.556;2023-05-07T09:22:11;3.97;;;0.90;;
47025;SDS011;32783;51.756;-2.556;2023-05-07T09:24:37;10.50;;;2.05;;
47025;SDS011;32783;51.756;-2.556;2023-05-07T09:27:06;5.10;;;1.00;;
47025;SDS011;32783;51.756;-2.556;2023-05-07T09:29:33;2.05;;;0.80;;
47025;SDS011;32783;51.756;-2.556;2023-05-07T09:32:09;2.92;;;1.08;;
47025;SDS011;32783;51.756;-2.556;2023-05-07T09:34:35;2.40;;;0.85;;
47025;SDS011;32783;51.756;-2.556;2023-05-07T09:37:04;6.45;;;1.02;;
47025;SDS011;32783;51.756;-2.556;2023-05-07T09:39:43;9.05;;;1.67;;
47025;SDS011;32783;51.756;-2.556;2023-05-07T09:42:09;3.03;;;0.75;;
47025;SDS011;32783;51.756;-2.556;2023-05-07T09:44:35;4.63;;;0.73;;
47025;SDS011;32783;51.756;-2.556;2023-05-07T09:47:01;5.85;;;1.10;;
47025;SDS011;32783;51.756;-2.556;2023-05-07T09:49:30;3.97;;;0.80;;
47025;SDS011;32783;51.756;-2.556;2023-05-07T09:51:56;4.05;;;1.02;;
47025;SDS011;32783;51.756;-2.556;2023-05-07T09:54:22;5.40;;;1.02;;
47025;SDS011;32783;51.756;-2.556;2023-05-07T09:56:51;7.20;;;1.33;;
47025;SDS011;32783;51.756;-2.556;2023-05-07T09:59:17;6.95;;;1.02;;
47025;SDS011;32783;51.756;-2.556;2023-05-07T10:01:43;3.78;;;1.38;;
47025;SDS011;32783;51.756;-2.556;2023-05-07T10:04:12;1.83;;;1.15;;
47025;SDS011;32783;51.756;-2.556;2023-05-07T10:06:39;3.85;;;1.50;;
47025;SDS011;32783;51.756;-2.556;2023-05-07T10:09:05;4.30;;;1.40;;
47025;SDS011;32783;51.756;-2.556;2023-05-07T10:11:34;5.00;;;2.42;;
47025;SDS011;32783;51.756;-2.556;2023-05-07T10:14:01;4.65;;;1.90;;
47025;SDS011;32783;51.756;-2.556;2023-05-07T10:16:31;6.03;;;1.65;;
47025;SDS011;32783;51.756;-2.556;2023-05-07T10:19:03;3.65;;;1.38;;
47025;SDS011;32783;51.756;-2.556;2023-05-07T10:21:30;2.58;;;1.30;;
47025;SDS011;32783;51.756;-2.556;2023-05-07T10:26:35;10.65;;;4.38;;
47025;SDS011;32783;51.756;-2.556;2023-05-07T10:29:05;11.55;;;8.60;;
47025;SDS011;32783;51.756;-2.556;2023-05-07T10:34:32;14.32;;;10.25;;
47025;SDS011;32783;51.756;-2.556;2023-05-07T10:37:01;59.53;;;40.50;;
47025;SDS011;32783;51.756;-2.556;2023-05-07T10:39:27;91.20;;;73.55;;
47025;SDS011;32783;51.756;-2.556;2023-05-07T10:41:53;78.30;;;62.85;;
47025;SDS011;32783;51.756;-2.556;2023-05-07T10:44:25;68.63;;;57.72;;
47025;SDS011;32783;51.756;-2.556;2023-05-07T10:47:08;44.92;;;34.00;;
47025;SDS011;32783;51.756;-2.556;2023-05-07T10:54:41;96.32;;;75.22;;
47025;SDS011;32783;51.756;-2.556;2023-05-07T11:00:01;53.47;;;43.70;;
47025;SDS011;32783;51.756;-2.556;2023-05-07T11:05:26;61.35;;;44.42;;
47025;SDS011;32783;51.756;-2.556;2023-05-07T11:07:57;46.47;;;35.90;;
47025;SDS011;32783;51.756;-2.556;2023-05-07T11:10:23;42.72;;;28.98;;
47025;SDS011;32783;51.756;-2.556;2023-05-07T11:13:15;35.80;;;26.67;;
47025;SDS011;32783;51.756;-2.556;2023-05-07T11:15:44;36.80;;;28.13;;
47025;SDS011;32783;51.756;-2.556;2023-05-07T11:18:11;30.77;;;19.88;;
47025;SDS011;32783;51.756;-2.556;2023-05-07T11:26:05;24.02;;;16.08;;
47025;SDS011;32783;51.756;-2.556;2023-05-07T11:28:36;21.65;;;14.25;;
47025;SDS011;32783;51.756;-2.556;2023-05-07T11:31:02;23.65;;;15.40;;
47025;SDS011;32783;51.756;-2.556;2023-05-07T11:33:28;21.55;;;15.38;;
47025;SDS011;32783;51.756;-2.556;2023-05-07T11:35:55;16.60;;;12.85;;
47025;SDS011;32783;51.756;-2.556;2023-05-07T11:38:21;22.35;;;14.98;;
47025;SDS011;32783;51.756;-2.556;2023-05-07T11:40:53;20.55;;;12.18;;
47025;SDS011;32783;51.756;-2.556;2023-05-07T11:43:21;15.07;;;11.30;;
47025;SDS011;32783;51.756;-2.556;2023-05-07T11:45:47;17.00;;;11.52;;
47025;SDS011;32783;51.756;-2.556;2023-05-07T11:48:13;15.55;;;9.75;;
47025;SDS011;32783;51.756;-2.556;2023-05-07T11:50:52;15.13;;;9.68;;
47025;SDS011;32783;51.756;-2.556;2023-05-07T11:53:19;15.20;;;7.50;;
47025;SDS011;32783;51.756;-2.556;2023-05-07T11:55:46;9.80;;;6.30;;
47025;SDS011;32783;51.756;-2.556;2023-05-07T11:58:12;13.68;;;7.05;;
47025;SDS011;32783;51.756;-2.556;2023-05-07T12:00:38;13.55;;;6.18;;
47025;SDS011;32783;51.756;-2.556;2023-05-07T12:03:06;12.90;;;5.55;;
47025;SDS011;32783;51.756;-2.556;2023-05-07T12:05:32;13.02;;;6.10;;
47025;SDS011;32783;51.756;-2.556;2023-05-07T12:07:57;13.07;;;6.80;;
47025;SDS011;32783;51.756;-2.556;2023-05-07T12:10:22;9.13;;;6.32;;
47025;SDS011;32783;51.756;-2.556;2023-05-07T12:12:50;12.45;;;6.10;;
47025;SDS011;32783;51.756;-2.556;2023-05-07T12:15:16;10.95;;;6.60;;
47025;SDS011;32783;51.756;-2.556;2023-05-07T12:17:42;15.20;;;6.43;;
47025;SDS011;32783;51.756;-2.556;2023-05-07T12:20:08;11.70;;;5.63;;
47025;SDS011;32783;51.756;-2.556;2023-05-07T12:22:34;13.02;;;6.28;;
47025;SDS011;32783;51.756;-2.556;2023-05-07T12:25:01;7.30;;;5.22;;
47025;SDS011;32783;51.756;-2.556;2023-05-07T12:27:27;8.18;;;5.93;;
47025;SDS011;32783;51.756;-2.556;2023-05-07T12:29:52;9.00;;;4.88;;
47025;SDS011;32783;51.756;-2.556;2023-05-07T12:32:18;8.15;;;4.53;;
47025;SDS011;32783;51.756;-2.556;2023-05-07T12:34:45;13.00;;;5.05;;
47025;SDS011;32783;51.756;-2.556;2023-05-07T12:37:11;8.25;;;4.65;;
47025;SDS011;32783;51.756;-2.556;2023-05-07T12:39:49;6.78;;;4.20;;
47025;SDS011;32783;51.756;-2.556;2023-05-07T12:42:29;17.73;;;5.28;;
47025;SDS011;32783;51.756;-2.556;2023-05-07T12:44:58;7.20;;;3.63;;
47025;SDS011;32783;51.756;-2.556;2023-05-07T12:47:23;6.32;;;4.00;;
47025;SDS011;32783;51.756;-2.556;2023-05-07T12:49:49;5.90;;;3.47;;
47025;SDS011;32783;51.756;-2.556;2023-05-07T12:52:15;7.78;;;4.10;;
47025;SDS011;32783;51.756;-2.556;2023-05-07T12:54:40;6.78;;;3.63;;
47025;SDS011;32783;51.756;-2.556;2023-05-07T12:57:06;6.22;;;4.20;;
47025;SDS011;32783;51.756;-2.556;2023-05-07T12:59:33;7.47;;;4.22;;
47025;SDS011;32783;51.756;-2.556;2023-05-07T13:02:00;6.82;;;3.70;;
47025;SDS011;32783;51.756;-2.556;2023-05-07T13:04:25;8.65;;;4.30;;
47025;SDS011;32783;51.756;-2.556;2023-05-07T13:06:51;8.15;;;3.83;;
47025;SDS011;32783;51.756;-2.556;2023-05-07T13:09:16;5.65;;;3.50;;
47025;SDS011;32783;51.756;-2.556;2023-05-07T13:11:42;7.40;;;3.90;;
47025;SDS011;32783;51.756;-2.556;2023-05-07T13:14:07;6.10;;;3.33;;
47025;SDS011;32783;51.756;-2.556;2023-05-07T13:16:33;5.95;;;3.40;;
47025;SDS011;32783;51.756;-2.556;2023-05-07T13:18:58;6.32;;;3.45;;
47025;SDS011;32783;51.756;-2.556;2023-05-07T13:21:23;3.83;;;2.92;;
47025;SDS011;32783;51.756;-2.556;2023-05-07T13:23:49;6.25;;;3.50;;
47025;SDS011;32783;51.756;-2.556;2023-05-07T13:26:14;6.05;;;3.45;;
47025;SDS011;32783;51.756;-2.556;2023-05-07T13:28:40;5.55;;;3.58;;
47025;SDS011;32783;51.756;-2.556;2023-05-07T13:31:05;5.63;;;3.03;;
47025;SDS011;32783;51.756;-2.556;2023-05-07T13:33:31;4.10;;;2.95;;
47025;SDS011;32783;51.756;-2.556;2023-05-07T13:35:56;8.18;;;3.42;;
47025;SDS011;32783;51.756;-2.556;2023-05-07T13:38:22;4.93;;;3.28;;
47025;SDS011;32783;51.756;-2.556;2023-05-07T13:40:47;4.60;;;3.40;;
47025;SDS011;32783;51.756;-2.556;2023-05-07T13:43:12;4.72;;;3.40;;
47025;SDS011;32783;51.756;-2.556;2023-05-07T13:45:38;5.00;;;2.97;;
47025;SDS011;32783;51.756;-2.556;2023-05-07T13:48:03;5.43;;;3.20;;
47025;SDS011;32783;51.756;-2.556;2023-05-07T13:50:29;4.90;;;3.08;;
47025;SDS011;32783;51.756;-2.556;2023-05-07T13:52:54;6.60;;;3.53;;
47025;SDS011;32783;51.756;-2.556;2023-05-07T13:55:21;4.53;;;3.35;;
47025;SDS011;32783;51.756;-2.556;2023-05-07T13:57:51;4.90;;;3.10;;
47025;SDS011;32783;51.756;-2.556;2023-05-07T14:00:20;6.20;;;2.75;;
47025;SDS011;32783;51.756;-2.556;2023-05-07T14:02:45;3.58;;;2.80;;
47025;SDS011;32783;51.756;-2.556;2023-05-07T14:05:11;8.07;;;2.97;;
47025;SDS011;32783;51.756;-2.556;2023-05-07T14:07:38;4.80;;;2.97;;
47025;SDS011;32783;51.756;-2.556;2023-05-07T14:10:03;4.00;;;2.80;;
47025;SDS011;32783;51.756;-2.556;2023-05-07T14:12:29;6.43;;;3.17;;
47025;SDS011;32783;51.756;-2.556;2023-05-07T14:14:56;3.55;;;2.63;;
47025;SDS011;32783;51.756;-2.556;2023-05-07T14:17:21;3.30;;;2.45;;
47025;SDS011;32783;51.756;-2.556;2023-05-07T14:19:48;4.18;;;2.58;;
47025;SDS011;32783;51.756;-2.556;2023-05-07T14:22:13;5.45;;;3.17;;
47025;SDS011;32783;51.756;-2.556;2023-05-07T14:24:40;4.82;;;2.80;;
47025;SDS011;32783;51.756;-2.556;2023-05-07T14:27:05;3.45;;;2.70;;
47025;SDS011;32783;51.756;-2.556;2023-05-07T14:29:31;5.88;;;2.67;;
47025;SDS011;32783;51.756;-2.556;2023-05-07T14:31:56;4.82;;;2.85;;
47025;SDS011;32783;51.756;-2.556;2023-05-07T14:34:22;4.13;;;2.63;;
47025;SDS011;32783;51.756;-2.556;2023-05-07T14:36:47;3.67;;;2.78;;
47025;SDS011;32783;51.756;-2.556;2023-05-07T14:39:12;6.30;;;3.17;;
47025;SDS011;32783;51.756;-2.556;2023-05-07T14:41:38;5.25;;;3.00;;
47025;SDS011;32783;51.756;-2.556;2023-05-07T14:44:03;6.45;;;3.30;;
47025;SDS011;32783;51.756;-2.556;2023-05-07T14:46:29;4.72;;;3.20;;
47025;SDS011;32783;51.756;-2.556;2023-05-07T14:48:54;5.45;;;3.30;;
47025;SDS011;32783;51.756;-2.556;2023-05-07T14:51:20;5.28;;;4.40;;